createdAt,value
2019-01-14T00:02:14.782Z,1.67
2019-01-14T00:04:43.211Z,1.50
2019-01-14T00:07:11.745Z,1.50
2019-01-14T00:09:40.206Z,1.37
2019-01-14T00:12:08.668Z,1.70
2019-01-14T00:14:37.086Z,1.47
2019-01-14T00:17:05.564Z,1.60
2019-01-14T00:19:33.990Z,1.50
2019-01-14T00:22:02.460Z,1.80
2019-01-14T00:24:30.898Z,1.60
2019-01-14T00:26:59.321Z,1.40
2019-01-14T00:29:27.745Z,1.60
2019-01-14T00:31:56.184Z,1.40
2019-01-14T00:34:25.162Z,1.53
2019-01-14T00:36:53.580Z,1.50
2019-01-14T00:39:21.998Z,1.60
2019-01-14T00:41:50.420Z,1.73
2019-01-14T00:44:18.830Z,1.50
2019-01-14T00:46:47.275Z,1.80
2019-01-14T00:49:15.676Z,1.60
2019-01-14T00:51:44.159Z,1.93
2019-01-14T00:54:12.564Z,1.53
2019-01-14T00:56:40.994Z,1.47
2019-01-14T00:59:09.401Z,1.27
2019-01-14T01:01:37.885Z,1.60
2019-01-14T01:04:06.323Z,1.50
2019-01-14T01:06:34.730Z,1.50
2019-01-14T01:09:05.186Z,1.60
2019-01-14T01:11:33.611Z,1.60
2019-01-14T01:14:02.032Z,1.63
2019-01-14T01:16:30.460Z,1.40
2019-01-14T01:18:58.882Z,1.30
2019-01-14T01:21:27.290Z,1.60
2019-01-14T01:23:55.727Z,1.90
2019-01-14T01:26:24.143Z,1.63
2019-01-14T01:28:52.566Z,1.60
2019-01-14T01:31:20.995Z,1.53
2019-01-14T01:33:49.437Z,1.50
2019-01-14T01:36:17.832Z,1.80
2019-01-14T01:38:46.232Z,1.50
2019-01-14T01:41:14.656Z,2.07
2019-01-14T01:43:43.079Z,1.63
2019-01-14T01:46:11.525Z,1.40
2019-01-14T01:48:39.914Z,1.63
2019-01-14T01:51:09.406Z,1.60
2019-01-14T01:53:37.814Z,2.50
2019-01-14T01:56:06.367Z,2.50
2019-01-14T01:58:34.763Z,2.20
2019-01-14T02:01:03.260Z,1.90
2019-01-14T02:03:31.670Z,2.87
2019-01-14T02:06:00.093Z,2.87
2019-01-14T02:08:28.536Z,2.50
2019-01-14T02:10:56.938Z,2.43
2019-01-14T02:13:25.348Z,2.33
2019-01-14T02:15:53.769Z,2.43
2019-01-14T02:18:22.179Z,2.40
2019-01-14T02:20:50.599Z,2.67
2019-01-14T02:23:19.015Z,2.57
2019-01-14T02:25:47.426Z,2.80
2019-01-14T02:28:15.843Z,2.30
2019-01-14T02:30:44.258Z,2.70
2019-01-14T02:33:12.665Z,2.63
2019-01-14T02:35:41.201Z,2.60
2019-01-14T02:38:09.605Z,2.50
2019-01-14T02:40:38.030Z,2.73
2019-01-14T02:43:06.460Z,2.77
2019-01-14T02:45:34.873Z,2.57
2019-01-14T02:48:03.440Z,2.77
2019-01-14T02:50:31.885Z,2.43
2019-01-14T02:53:00.295Z,2.40
2019-01-14T02:55:28.705Z,2.57
2019-01-14T02:57:57.116Z,2.47
2019-01-14T03:00:26.376Z,2.57
2019-01-14T03:02:54.819Z,2.60
2019-01-14T03:05:23.398Z,2.50
2019-01-14T03:07:51.895Z,2.17
2019-01-14T03:10:20.378Z,2.37
2019-01-14T03:12:48.810Z,2.57
2019-01-14T03:15:18.055Z,2.50
2019-01-14T03:17:46.513Z,2.70
2019-01-14T03:20:16.477Z,2.80
2019-01-14T03:22:45.126Z,2.50
2019-01-14T03:25:14.505Z,2.70
2019-01-14T03:27:42.984Z,2.50
2019-01-14T03:30:13.948Z,2.53
2019-01-14T03:32:42.437Z,2.87
2019-01-14T03:35:10.929Z,2.30
2019-01-14T03:37:39.413Z,2.20
2019-01-14T03:40:10.985Z,2.67
2019-01-14T03:42:39.550Z,2.50
2019-01-14T03:45:09.231Z,2.60
2019-01-14T03:47:38.626Z,2.40
2019-01-14T03:50:13.211Z,2.50
2019-01-14T03:52:41.612Z,2.43
2019-01-14T03:55:10.201Z,2.40
2019-01-14T03:57:39.007Z,2.47
2019-01-14T04:00:13.383Z,2.40
2019-01-14T04:02:41.875Z,2.70
2019-01-14T04:05:10.821Z,2.50
2019-01-14T04:07:39.278Z,2.60
2019-01-14T04:10:10.897Z,2.60
2019-01-14T04:12:39.311Z,2.63
2019-01-14T04:15:10.267Z,2.50
2019-01-14T04:17:38.675Z,2.60
2019-01-14T04:20:10.405Z,2.30
2019-01-14T04:22:39.001Z,2.80
2019-01-14T04:25:08.966Z,2.40
2019-01-14T04:27:37.386Z,2.30
2019-01-14T04:30:18.025Z,2.27
2019-01-14T04:32:46.429Z,2.30
2019-01-14T04:35:15.203Z,2.20
2019-01-14T04:37:43.624Z,2.33
2019-01-14T04:40:14.287Z,2.10
2019-01-14T04:42:43.057Z,2.80
2019-01-14T04:45:15.689Z,2.60
2019-01-14T04:47:45.104Z,2.33
2019-01-14T04:50:19.193Z,2.40
2019-01-14T04:52:47.670Z,2.50
2019-01-14T04:55:16.150Z,2.73
2019-01-14T04:57:44.553Z,2.57
2019-01-14T05:00:21.408Z,2.67
2019-01-14T05:02:49.837Z,2.60
2019-01-14T05:05:18.308Z,2.37
2019-01-14T05:07:46.866Z,2.20
2019-01-14T05:10:17.815Z,2.80
2019-01-14T05:12:46.387Z,2.60
2019-01-14T05:15:14.859Z,2.97
2019-01-14T05:17:43.283Z,2.30
2019-01-14T05:20:17.396Z,2.50
2019-01-14T05:22:45.821Z,2.17
2019-01-14T05:25:14.243Z,2.27
2019-01-14T05:27:42.707Z,2.40
2019-01-14T05:30:16.247Z,2.10
2019-01-14T05:32:44.782Z,2.27
2019-01-14T05:35:13.850Z,2.30
2019-01-14T05:37:42.342Z,2.73
2019-01-14T05:40:19.961Z,2.03
2019-01-14T05:42:48.443Z,2.23
2019-01-14T05:45:17.042Z,2.27
2019-01-14T05:47:45.522Z,2.37
2019-01-14T05:50:15.388Z,2.60
2019-01-14T05:52:43.938Z,2.60
2019-01-14T05:55:13.506Z,2.80
2019-01-14T05:57:41.901Z,2.83
2019-01-14T06:00:24.759Z,2.50
2019-01-14T06:02:53.181Z,2.50
2019-01-14T06:05:21.729Z,2.33
2019-01-14T06:07:50.140Z,2.00
2019-01-14T06:10:18.581Z,2.10
2019-01-14T06:12:46.989Z,2.07
2019-01-14T06:15:16.446Z,2.03
2019-01-14T06:17:44.887Z,2.23
2019-01-14T06:20:16.753Z,2.37
2019-01-14T06:22:45.314Z,2.30
2019-01-14T06:25:15.062Z,2.10
2019-01-14T06:27:43.574Z,2.20
2019-01-14T06:30:15.080Z,2.13
2019-01-14T06:32:43.507Z,2.50
2019-01-14T06:35:12.078Z,2.43
2019-01-14T06:37:40.479Z,2.50
2019-01-14T06:40:13.207Z,2.40
2019-01-14T06:42:41.640Z,2.50
2019-01-14T06:45:10.959Z,2.30
2019-01-14T06:47:39.368Z,2.40
2019-01-14T06:50:10.908Z,2.60
2019-01-14T06:52:39.399Z,2.50
2019-01-14T06:55:08.282Z,2.30
2019-01-14T06:57:36.758Z,2.30
2019-01-14T07:00:11.157Z,2.23
2019-01-14T07:02:39.717Z,2.33
2019-01-14T07:05:09.657Z,2.60
2019-01-14T07:07:38.090Z,2.43
2019-01-14T07:10:09.574Z,2.50
2019-01-14T07:12:38.009Z,2.43
2019-01-14T07:15:08.643Z,3.13
2019-01-14T07:17:37.082Z,2.50
2019-01-14T07:20:08.894Z,2.50
2019-01-14T07:22:37.419Z,2.50
2019-01-14T07:25:07.985Z,2.57
2019-01-14T07:27:36.391Z,2.80
2019-01-14T07:30:10.934Z,2.40
2019-01-14T07:32:39.359Z,2.37
2019-01-14T07:35:08.422Z,2.70
2019-01-14T07:37:36.832Z,2.80
2019-01-14T07:40:08.366Z,2.33
2019-01-14T07:42:36.787Z,2.60
2019-01-14T07:45:07.367Z,2.77
2019-01-14T07:47:36.768Z,2.27
2019-01-14T07:50:08.733Z,2.20
2019-01-14T07:52:37.149Z,2.90
2019-01-14T07:55:06.318Z,2.50
2019-01-14T07:57:34.722Z,2.60
2019-01-14T08:00:04.842Z,2.47
2019-01-14T08:02:33.255Z,2.23
2019-01-14T08:05:01.675Z,2.57
2019-01-14T08:07:30.117Z,2.37
2019-01-14T08:09:58.536Z,2.20
2019-01-14T08:12:27.909Z,2.30
2019-01-14T08:14:56.359Z,2.10
2019-01-14T08:17:24.797Z,2.37
2019-01-14T08:19:53.211Z,2.13
2019-01-14T08:22:22.580Z,1.80
2019-01-14T08:24:51.019Z,2.23
2019-01-14T08:27:19.450Z,2.10
2019-01-14T08:29:47.844Z,2.13
2019-01-14T08:32:16.601Z,2.00
2019-01-14T08:34:45.093Z,2.53
2019-01-14T08:37:13.516Z,2.30
2019-01-14T08:39:41.930Z,2.30
2019-01-14T08:42:10.876Z,2.10
2019-01-14T08:44:39.325Z,2.17
2019-01-14T08:47:07.731Z,2.10
2019-01-14T08:49:36.149Z,1.90
2019-01-14T08:52:04.620Z,2.30
2019-01-14T08:54:33.054Z,2.07
2019-01-14T08:57:01.549Z,1.73
2019-01-14T08:59:29.999Z,1.80
2019-01-14T09:01:58.400Z,1.70
2019-01-14T09:04:32.375Z,1.87
2019-01-14T09:06:57.032Z,1.50
2019-01-14T09:09:25.491Z,1.60
2019-01-14T09:11:53.903Z,1.70
2019-01-14T09:14:22.326Z,1.83
2019-01-14T09:16:50.763Z,1.80
2019-01-14T09:19:19.156Z,1.77
2019-01-14T09:21:47.606Z,1.50
2019-01-14T09:24:16.030Z,1.70
2019-01-14T09:26:45.054Z,1.63
2019-01-14T09:29:13.551Z,1.83
2019-01-14T09:31:42.617Z,1.70
2019-01-14T09:34:11.123Z,2.00
2019-01-14T09:36:39.530Z,1.77
2019-01-14T09:39:08.877Z,1.70
2019-01-14T09:41:37.295Z,2.20
2019-01-14T09:44:06.618Z,1.67
2019-01-14T09:46:35.117Z,1.30
2019-01-14T09:49:03.551Z,1.13
2019-01-14T09:51:32.046Z,1.90
2019-01-14T09:54:00.554Z,1.50
2019-01-14T09:56:28.981Z,1.20
2019-01-14T09:58:57.376Z,1.50
2019-01-14T10:01:25.819Z,1.63
2019-01-14T10:03:54.305Z,1.67
2019-01-14T10:06:22.709Z,1.80
2019-01-14T10:08:51.189Z,1.60
2019-01-14T10:11:19.598Z,1.70
2019-01-14T10:13:48.012Z,1.60
2019-01-14T10:16:16.497Z,1.67
2019-01-14T10:18:44.939Z,1.97
2019-01-14T10:21:13.410Z,1.67
2019-01-14T10:23:41.857Z,1.50
2019-01-14T10:26:11.225Z,1.50
2019-01-14T10:28:39.641Z,1.60
2019-01-14T10:31:08.085Z,1.80
2019-01-14T10:33:36.557Z,2.10
2019-01-14T10:36:05.320Z,1.67
2019-01-14T10:38:33.771Z,1.70
2019-01-14T10:41:02.250Z,1.40
2019-01-14T10:43:30.686Z,1.70
2019-01-14T10:45:59.090Z,1.53
2019-01-14T10:48:27.525Z,1.60
2019-01-14T10:50:56.014Z,1.60
2019-01-14T10:53:24.439Z,1.70
2019-01-14T10:55:52.867Z,1.40
2019-01-14T10:58:21.290Z,1.60
2019-01-14T11:00:49.704Z,1.50
2019-01-14T11:03:18.215Z,1.63
2019-01-14T11:05:46.704Z,2.13
2019-01-14T11:08:15.234Z,1.60
2019-01-14T11:10:43.731Z,1.33
2019-01-14T11:13:12.378Z,1.60
2019-01-14T11:15:40.838Z,1.70
2019-01-14T11:18:09.378Z,1.37
2019-01-14T11:20:37.801Z,1.40
2019-01-14T11:23:07.134Z,1.40
2019-01-14T11:25:35.545Z,1.40
2019-01-14T11:28:04.727Z,1.00
2019-01-14T11:30:33.316Z,1.20
2019-01-14T11:33:01.730Z,1.30
2019-01-14T11:35:30.152Z,1.30
2019-01-14T11:37:58.666Z,1.30
2019-01-14T11:40:32.886Z,1.30
2019-01-14T11:43:01.285Z,1.40
2019-01-14T11:45:29.704Z,1.30
2019-01-14T11:47:58.145Z,1.70
2019-01-14T11:50:26.567Z,1.10
2019-01-14T11:52:55.950Z,1.43
2019-01-14T11:55:24.491Z,1.43
2019-01-14T11:57:52.902Z,1.13
2019-01-14T12:00:23.454Z,1.30
2019-01-14T12:02:52.337Z,1.40
2019-01-14T12:05:20.833Z,1.10
2019-01-14T12:07:50.210Z,1.43
2019-01-14T12:10:19.562Z,1.50
2019-01-14T12:12:49.885Z,1.30
2019-01-14T12:15:23.609Z,1.70
2019-01-14T12:17:52.202Z,1.70
2019-01-14T12:20:20.747Z,1.23
2019-01-14T12:22:50.230Z,1.67
2019-01-14T12:25:19.961Z,1.40
2019-01-14T12:27:48.671Z,1.70
2019-01-14T12:30:25.586Z,1.40
2019-01-14T12:32:54.019Z,1.60
2019-01-14T12:35:22.416Z,1.60
2019-01-14T12:37:50.844Z,1.60
2019-01-14T12:40:19.315Z,1.40
2019-01-14T12:42:47.799Z,1.37
2019-01-14T12:45:18.041Z,1.47
2019-01-14T12:47:46.820Z,1.53
2019-01-14T12:50:17.262Z,1.60
2019-01-14T12:52:46.336Z,1.50
2019-01-14T12:55:18.948Z,1.40
2019-01-14T12:57:47.532Z,1.37
2019-01-14T13:00:21.599Z,1.47
2019-01-14T13:02:50.022Z,1.30
2019-01-14T13:05:20.152Z,1.10
2019-01-14T13:07:48.596Z,1.30
2019-01-14T13:10:17.147Z,1.37
2019-01-14T13:12:45.621Z,1.07
2019-01-14T13:15:19.489Z,1.00
2019-01-14T13:17:48.193Z,1.10
2019-01-14T13:20:18.482Z,1.20
2019-01-14T13:22:46.959Z,1.30
2019-01-14T13:25:15.529Z,1.30
2019-01-14T13:27:44.092Z,1.33
2019-01-14T13:30:17.872Z,1.93
2019-01-14T13:32:46.298Z,1.17
2019-01-14T13:35:14.860Z,1.10
2019-01-14T13:37:43.341Z,1.33
2019-01-14T13:40:13.011Z,1.30
2019-01-14T13:42:41.423Z,1.40
2019-01-14T13:45:18.141Z,1.20
2019-01-14T13:47:47.086Z,1.20
2019-01-14T13:50:21.258Z,1.40
2019-01-14T13:52:49.697Z,1.20
2019-01-14T13:55:18.749Z,1.23
2019-01-14T13:57:47.177Z,1.10
2019-01-14T14:00:20.952Z,1.20
2019-01-14T14:02:49.381Z,1.30
2019-01-14T14:05:17.862Z,1.20
2019-01-14T14:07:46.277Z,1.37
2019-01-14T14:10:24.041Z,1.30
2019-01-14T14:12:52.473Z,1.23
2019-01-14T14:15:21.333Z,1.10
2019-01-14T14:17:49.801Z,1.23
2019-01-14T14:20:18.938Z,1.20
2019-01-14T14:22:47.893Z,1.50
2019-01-14T14:25:16.324Z,1.20
2019-01-14T14:27:44.806Z,1.40
2019-01-14T14:30:39.806Z,1.30
2019-01-14T14:33:08.296Z,1.60
2019-01-14T14:35:36.723Z,1.20
2019-01-14T14:38:06.102Z,1.17
2019-01-14T14:40:34.595Z,1.40
2019-01-14T14:43:03.016Z,1.00
2019-01-14T14:45:31.543Z,1.37
2019-01-14T14:48:00.018Z,1.40
2019-01-14T14:50:28.514Z,1.23
2019-01-14T14:52:57.023Z,1.30
2019-01-14T14:55:25.445Z,1.20
2019-01-14T14:57:53.847Z,1.27
2019-01-14T15:00:23.133Z,1.30
2019-01-14T15:02:51.635Z,1.50
2019-01-14T15:05:21.673Z,1.40
2019-01-14T15:07:50.156Z,1.50
2019-01-14T15:10:20.616Z,1.30
2019-01-14T15:12:49.391Z,1.37
2019-01-14T15:15:19.709Z,1.37
2019-01-14T15:17:48.168Z,1.20
2019-01-14T15:20:19.206Z,1.40
2019-01-14T15:22:47.624Z,1.47
2019-01-14T15:25:16.057Z,1.43
2019-01-14T15:27:44.469Z,1.30
2019-01-14T15:30:21.748Z,1.30
2019-01-14T15:32:50.223Z,1.23
2019-01-14T15:35:19.012Z,1.53
2019-01-14T15:37:47.546Z,1.47
2019-01-14T15:40:17.907Z,1.67
2019-01-14T15:42:46.392Z,1.20
2019-01-14T15:45:17.102Z,1.10
2019-01-14T15:47:45.554Z,1.30
2019-01-14T15:50:15.590Z,1.50
2019-01-14T15:52:44.071Z,1.20
2019-01-14T15:55:15.647Z,1.20
2019-01-14T15:57:44.067Z,1.30
2019-01-14T16:00:17.479Z,1.60
2019-01-14T16:02:45.974Z,1.87
2019-01-14T16:05:15.590Z,1.73
2019-01-14T16:07:44.093Z,1.27
2019-01-14T16:10:15.567Z,1.20
2019-01-14T16:12:44.045Z,1.20
2019-01-14T16:15:12.608Z,0.97
2019-01-14T16:17:41.163Z,1.27
2019-01-14T16:20:12.472Z,1.40
2019-01-14T16:22:40.987Z,0.93
2019-01-14T16:25:09.549Z,1.37
2019-01-14T16:27:37.981Z,2.00
2019-01-14T16:30:12.375Z,0.90
2019-01-14T16:32:40.816Z,1.20
2019-01-14T16:35:09.290Z,1.40
2019-01-14T16:37:37.959Z,1.33
2019-01-14T16:40:08.215Z,1.00
2019-01-14T16:42:36.631Z,1.37
2019-01-14T16:45:11.036Z,1.33
2019-01-14T16:47:39.564Z,1.20
2019-01-14T16:50:10.610Z,1.50
2019-01-14T16:52:39.010Z,1.43
2019-01-14T16:55:08.768Z,1.17
2019-01-14T16:57:37.317Z,1.10
2019-01-14T17:00:09.156Z,0.90
2019-01-14T17:02:37.572Z,0.93
2019-01-14T17:05:06.611Z,0.97
2019-01-14T17:07:35.038Z,1.30
2019-01-14T17:10:05.275Z,1.00
2019-01-14T17:12:33.679Z,0.90
2019-01-14T17:15:02.095Z,1.13
2019-01-14T17:17:30.522Z,0.90
2019-01-14T17:19:59.006Z,0.97
2019-01-14T17:22:27.404Z,1.00
2019-01-14T17:24:55.850Z,1.00
2019-01-14T17:27:24.261Z,1.30
2019-01-14T17:29:52.692Z,1.17
2019-01-14T17:32:21.227Z,0.83
2019-01-14T17:34:49.663Z,0.90
2019-01-14T17:37:18.065Z,1.07
2019-01-14T17:39:46.520Z,1.47
2019-01-14T17:42:15.881Z,1.00
2019-01-14T17:44:44.302Z,1.00
2019-01-14T17:47:12.700Z,1.00
2019-01-14T17:49:41.153Z,1.33
2019-01-14T17:52:09.617Z,0.90
2019-01-14T17:54:38.046Z,1.00
2019-01-14T17:57:06.453Z,1.50
2019-01-14T17:59:34.954Z,1.30
2019-01-14T18:02:03.882Z,1.10
2019-01-14T18:04:32.338Z,1.30
2019-01-14T18:07:00.810Z,1.37
2019-01-14T18:09:29.267Z,1.20
2019-01-14T18:11:57.692Z,1.30
2019-01-14T18:14:26.141Z,1.30
2019-01-14T18:16:54.562Z,1.30
2019-01-14T18:19:22.974Z,1.10
2019-01-14T18:21:51.386Z,1.03
2019-01-14T18:24:19.811Z,1.53
2019-01-14T18:26:48.245Z,1.70
2019-01-14T18:29:16.654Z,2.03
2019-01-14T18:31:45.090Z,1.43
2019-01-14T18:34:13.485Z,1.73
2019-01-14T18:36:41.934Z,1.77
2019-01-14T18:39:10.332Z,1.50
2019-01-14T18:41:38.764Z,1.80
2019-01-14T18:44:07.199Z,1.60
2019-01-14T18:46:36.109Z,1.40
2019-01-14T18:49:04.756Z,1.20
2019-01-14T18:51:33.166Z,1.30
2019-01-14T18:54:01.580Z,1.30
2019-01-14T18:56:30.011Z,1.20
2019-01-14T18:58:58.462Z,1.47
2019-01-14T19:01:26.890Z,1.73
2019-01-14T19:03:55.304Z,1.23
2019-01-14T19:06:23.739Z,1.40
2019-01-14T19:08:52.153Z,1.20
2019-01-14T19:11:20.602Z,1.03
2019-01-14T19:13:49.018Z,1.30
2019-01-14T19:16:17.460Z,1.00
2019-01-14T19:18:45.867Z,1.57
2019-01-14T19:21:14.298Z,2.13
2019-01-14T19:23:42.704Z,1.50
2019-01-14T19:26:11.118Z,1.80
2019-01-14T19:28:39.556Z,1.80
2019-01-14T19:31:07.983Z,1.77
2019-01-14T19:33:36.416Z,1.70
2019-01-14T19:36:05.186Z,1.60
2019-01-14T19:38:33.598Z,1.80
2019-01-14T19:41:02.278Z,1.83
2019-01-14T19:43:30.716Z,1.67
2019-01-14T19:45:59.120Z,1.80
2019-01-14T19:48:27.542Z,1.50
2019-01-14T19:50:55.976Z,1.47
2019-01-14T19:53:24.461Z,1.50
2019-01-14T19:55:52.879Z,1.60
2019-01-14T19:58:21.306Z,1.27
2019-01-14T20:00:49.728Z,1.50
2019-01-14T20:03:18.240Z,1.57
2019-01-14T20:05:46.649Z,1.67
2019-01-14T20:08:16.713Z,1.30
2019-01-14T20:10:45.112Z,1.20
2019-01-14T20:13:13.538Z,1.40
2019-01-14T20:15:42.020Z,1.20
2019-01-14T20:18:10.454Z,1.63
2019-01-14T20:20:38.874Z,1.60
2019-01-14T20:23:07.283Z,1.50
2019-01-14T20:25:37.332Z,1.43
2019-01-14T20:28:05.742Z,1.87
2019-01-14T20:30:34.166Z,1.70
2019-01-14T20:33:02.617Z,1.33
2019-01-14T20:35:31.040Z,1.87
2019-01-14T20:37:59.454Z,1.90
2019-01-14T20:40:27.886Z,2.50
2019-01-14T20:42:56.338Z,1.63
2019-01-14T20:45:24.747Z,1.70
2019-01-14T20:47:53.192Z,2.33
2019-01-14T20:50:23.420Z,2.13
2019-01-14T20:52:51.959Z,1.40
2019-01-14T20:55:20.465Z,1.80
2019-01-14T20:57:48.942Z,2.40
2019-01-14T21:00:21.065Z,2.00
2019-01-14T21:02:52.560Z,1.70
2019-01-14T21:05:21.331Z,1.83
2019-01-14T21:07:49.814Z,1.80
2019-01-14T21:10:18.387Z,1.77
2019-01-14T21:12:46.975Z,2.07
2019-01-14T21:15:15.478Z,2.17
2019-01-14T21:17:44.006Z,1.70
2019-01-14T21:20:17.924Z,1.63
2019-01-14T21:22:46.719Z,1.60
2019-01-14T21:25:15.261Z,1.87
2019-01-14T21:27:43.705Z,2.20
2019-01-14T21:30:15.589Z,1.90
2019-01-14T21:32:44.011Z,1.60
2019-01-14T21:35:12.666Z,1.97
2019-01-14T21:37:41.145Z,2.00
2019-01-14T21:40:12.004Z,2.00
2019-01-14T21:42:40.554Z,1.87
2019-01-14T21:45:11.487Z,1.77
2019-01-14T21:47:39.959Z,1.60
2019-01-14T21:50:11.461Z,2.07
2019-01-14T21:52:39.907Z,2.10
2019-01-14T21:55:10.968Z,2.00
2019-01-14T21:57:39.390Z,1.83
2019-01-14T22:00:13.318Z,2.07
2019-01-14T22:02:41.824Z,1.50
2019-01-14T22:05:10.236Z,1.50
2019-01-14T22:07:38.632Z,1.60
2019-01-14T22:10:10.153Z,2.00
2019-01-14T22:12:38.548Z,2.03
2019-01-14T22:15:09.001Z,2.00
2019-01-14T22:17:37.431Z,1.90
2019-01-14T22:20:14.563Z,2.20
2019-01-14T22:22:43.116Z,1.20
2019-01-14T22:25:11.525Z,1.90
2019-01-14T22:27:40.042Z,2.00
2019-01-14T22:30:11.854Z,2.00
2019-01-14T22:32:40.261Z,1.43
2019-01-14T22:35:08.715Z,1.50
2019-01-14T22:37:37.170Z,2.10
2019-01-14T22:40:09.065Z,2.10
2019-01-14T22:42:37.504Z,1.90
2019-01-14T22:45:07.390Z,1.70
2019-01-14T22:47:35.820Z,2.07
2019-01-14T22:50:07.641Z,2.60
2019-01-14T22:52:37.046Z,2.37
2019-01-14T22:55:07.515Z,1.53
2019-01-14T22:57:35.984Z,1.80
2019-01-14T23:00:11.699Z,1.70
2019-01-14T23:02:40.322Z,1.70
2019-01-14T23:05:08.755Z,1.90
2019-01-14T23:07:37.187Z,1.80
2019-01-14T23:10:05.933Z,2.00
2019-01-14T23:12:34.380Z,2.00
2019-01-14T23:15:02.852Z,1.90
2019-01-14T23:17:31.282Z,1.73
2019-01-14T23:19:59.704Z,1.80
2019-01-14T23:22:28.201Z,2.33
2019-01-14T23:24:56.630Z,1.90
2019-01-14T23:27:25.064Z,2.00
2019-01-14T23:29:53.514Z,1.60
2019-01-14T23:32:21.954Z,2.03
2019-01-14T23:34:50.473Z,2.20
2019-01-14T23:37:18.878Z,1.70
2019-01-14T23:39:47.311Z,2.53
2019-01-14T23:42:15.802Z,1.90
2019-01-14T23:44:44.231Z,1.87
2019-01-14T23:47:12.666Z,1.77
2019-01-14T23:49:41.159Z,2.17
2019-01-14T23:52:09.576Z,2.30
2019-01-14T23:54:37.994Z,1.90
2019-01-14T23:57:06.411Z,1.93
2019-01-14T23:59:34.929Z,1.97
